sensor_id;sensor_type;location;lat;lon;timestamp;P1;durP1;ratioP1;P2;durP2;ratioP2
17997;SDS011;9124;48.144;17.098;2023-11-22T00:01:34;23.98;;;15.80;;
17997;SDS011;9124;48.144;17.098;2023-11-22T00:06:00;20.38;;;15.65;;
17997;SDS011;9124;48.144;17.098;2023-11-22T00:10:31;20.83;;;16.85;;
17997;SDS011;9124;48.144;17.098;2023-11-22T00:14:57;20.13;;;14.90;;
17997;SDS011;9124;48.144;17.098;2023-11-22T00:19:24;19.55;;;13.63;;
17997;SDS011;9124;48.144;17.098;2023-11-22T00:23:50;19.15;;;13.32;;
17997;SDS011;9124;48.144;17.098;2023-11-22T00:28:16;20.08;;;12.57;;
17997;SDS011;9124;48.144;17.098;2023-11-22T00:32:43;14.50;;;12.30;;
17997;SDS011;9124;48.144;17.098;2023-11-22T00:37:10;16.40;;;12.25;;
17997;SDS011;9124;48.144;17.098;2023-11-22T00:41:36;15.48;;;12.98;;
17997;SDS011;9124;48.144;17.098;2023-11-22T00:46:03;14.00;;;12.02;;
17997;SDS011;9124;48.144;17.098;2023-11-22T00:50:30;17.90;;;13.68;;
17997;SDS011;9124;48.144;17.098;2023-11-22T00:54:56;18.67;;;12.52;;
17997;SDS011;9124;48.144;17.098;2023-11-22T00:59:23;20.48;;;13.70;;
17997;SDS011;9124;48.144;17.098;2023-11-22T01:03:49;18.75;;;15.55;;
17997;SDS011;9124;48.144;17.098;2023-11-22T01:08:16;18.95;;;17.00;;
17997;SDS011;9124;48.144;17.098;2023-11-22T01:12:42;22.95;;;18.08;;
17997;SDS011;9124;48.144;17.098;2023-11-22T01:17:10;22.25;;;18.48;;
17997;SDS011;9124;48.144;17.098;2023-11-22T01:21:36;19.90;;;17.77;;
17997;SDS011;9124;48.144;17.098;2023-11-22T01:26:02;21.95;;;18.52;;
17997;SDS011;9124;48.144;17.098;2023-11-22T01:30:29;23.35;;;20.17;;
17997;SDS011;9124;48.144;17.098;2023-11-22T01:34:56;23.48;;;18.67;;
17997;SDS011;9124;48.144;17.098;2023-11-22T01:39:24;21.95;;;18.00;;
17997;SDS011;9124;48.144;17.098;2023-11-22T01:43:52;22.00;;;19.30;;
17997;SDS011;9124;48.144;17.098;2023-11-22T01:48:18;26.70;;;20.15;;
17997;SDS011;9124;48.144;17.098;2023-11-22T01:52:45;31.40;;;21.70;;
17997;SDS011;9124;48.144;17.098;2023-11-22T01:57:12;32.40;;;23.00;;
17997;SDS011;9124;48.144;17.098;2023-11-22T02:01:41;27.30;;;22.27;;
17997;SDS011;9124;48.144;17.098;2023-11-22T02:06:08;28.52;;;21.52;;
17997;SDS011;9124;48.144;17.098;2023-11-22T02:10:35;24.30;;;20.98;;
17997;SDS011;9124;48.144;17.098;2023-11-22T02:15:03;24.80;;;19.77;;
17997;SDS011;9124;48.144;17.098;2023-11-22T02:19:30;21.55;;;18.25;;
17997;SDS011;9124;48.144;17.098;2023-11-22T02:23:57;20.13;;;17.25;;
17997;SDS011;9124;48.144;17.098;2023-11-22T02:28:23;16.52;;;14.85;;
17997;SDS011;9124;48.144;17.098;2023-11-22T02:32:51;11.93;;;11.02;;
17997;SDS011;9124;48.144;17.098;2023-11-22T02:37:17;9.90;;;9.20;;
17997;SDS011;9124;48.144;17.098;2023-11-22T02:41:44;8.77;;;8.07;;
17997;SDS011;9124;48.144;17.098;2023-11-22T02:46:10;8.00;;;7.28;;
17997;SDS011;9124;48.144;17.098;2023-11-22T02:50:36;6.50;;;6.10;;
17997;SDS011;9124;48.144;17.098;2023-11-22T02:55:03;5.75;;;5.25;;
17997;SDS011;9124;48.144;17.098;2023-11-22T02:59:35;4.97;;;4.55;;
17997;SDS011;9124;48.144;17.098;2023-11-22T03:04:01;3.90;;;3.60;;
17997;SDS011;9124;48.144;17.098;2023-11-22T03:08:28;4.57;;;4.28;;
17997;SDS011;9124;48.144;17.098;2023-11-22T03:12:54;4.22;;;3.92;;
17997;SDS011;9124;48.144;17.098;2023-11-22T03:17:21;4.00;;;3.70;;
17997;SDS011;9124;48.144;17.098;2023-11-22T03:21:48;4.40;;;4.10;;
17997;SDS011;9124;48.144;17.098;2023-11-22T03:26:15;4.45;;;4.15;;
17997;SDS011;9124;48.144;17.098;2023-11-22T03:30:41;3.70;;;3.42;;
17997;SDS011;9124;48.144;17.098;2023-11-22T03:35:08;3.92;;;3.72;;
17997;SDS011;9124;48.144;17.098;2023-11-22T03:39:37;4.63;;;4.32;;
17997;SDS011;9124;48.144;17.098;2023-11-22T03:44:04;4.05;;;3.75;;
17997;SDS011;9124;48.144;17.098;2023-11-22T03:48:34;4.47;;;4.18;;
17997;SDS011;9124;48.144;17.098;2023-11-22T03:53:00;4.20;;;3.90;;
17997;SDS011;9124;48.144;17.098;2023-11-22T03:57:27;4.70;;;3.28;;
17997;SDS011;9124;48.144;17.098;2023-11-22T04:01:54;3.10;;;2.90;;
17997;SDS011;9124;48.144;17.098;2023-11-22T04:06:20;3.92;;;3.63;;
17997;SDS011;9124;48.144;17.098;2023-11-22T04:10:47;3.97;;;3.55;;
17997;SDS011;9124;48.144;17.098;2023-11-22T04:15:13;3.20;;;3.00;;
17997;SDS011;9124;48.144;17.098;2023-11-22T04:19:40;3.65;;;3.45;;
17997;SDS011;9124;48.144;17.098;2023-11-22T04:24:07;4.35;;;4.05;;
17997;SDS011;9124;48.144;17.098;2023-11-22T04:28:33;3.97;;;3.67;;
17997;SDS011;9124;48.144;17.098;2023-11-22T04:33:00;4.13;;;3.72;;
17997;SDS011;9124;48.144;17.098;2023-11-22T04:37:27;3.67;;;3.42;;
17997;SDS011;9124;48.144;17.098;2023-11-22T04:41:57;4.22;;;3.92;;
17997;SDS011;9124;48.144;17.098;2023-11-22T04:46:24;4.15;;;3.55;;
17997;SDS011;9124;48.144;17.098;2023-11-22T04:50:50;3.97;;;3.60;;
17997;SDS011;9124;48.144;17.098;2023-11-22T04:55:17;3.88;;;3.58;;
17997;SDS011;9124;48.144;17.098;2023-11-22T04:59:45;4.47;;;3.00;;
17997;SDS011;9124;48.144;17.098;2023-11-22T05:04:11;3.40;;;3.10;;
17997;SDS011;9124;48.144;17.098;2023-11-22T05:08:38;3.30;;;3.00;;
17997;SDS011;9124;48.144;17.098;2023-11-22T05:13:04;3.60;;;2.80;;
17997;SDS011;9124;48.144;17.098;2023-11-22T05:17:31;3.17;;;2.97;;
17997;SDS011;9124;48.144;17.098;2023-11-22T05:21:58;3.30;;;3.00;;
17997;SDS011;9124;48.144;17.098;2023-11-22T05:26:24;6.32;;;3.13;;
17997;SDS011;9124;48.144;17.098;2023-11-22T05:30:51;3.15;;;2.92;;
17997;SDS011;9124;48.144;17.098;2023-11-22T05:35:17;3.25;;;3.00;;
17997;SDS011;9124;48.144;17.098;2023-11-22T05:39:45;3.00;;;2.80;;
17997;SDS011;9124;48.144;17.098;2023-11-22T05:44:11;5.55;;;3.08;;
17997;SDS011;9124;48.144;17.098;2023-11-22T05:48:38;2.88;;;2.67;;
17997;SDS011;9124;48.144;17.098;2023-11-22T05:53:04;3.92;;;3.22;;
17997;SDS011;9124;48.144;17.098;2023-11-22T05:57:30;3.28;;;3.03;;
17997;SDS011;9124;48.144;17.098;2023-11-22T06:01:57;4.28;;;3.80;;
17997;SDS011;9124;48.144;17.098;2023-11-22T06:06:23;4.15;;;3.85;;
17997;SDS011;9124;48.144;17.098;2023-11-22T06:10:50;3.83;;;3.20;;
17997;SDS011;9124;48.144;17.098;2023-11-22T06:15:18;4.38;;;3.97;;
17997;SDS011;9124;48.144;17.098;2023-11-22T06:19:47;4.47;;;4.18;;
17997;SDS011;9124;48.144;17.098;2023-11-22T06:24:13;4.22;;;3.92;;
17997;SDS011;9124;48.144;17.098;2023-11-22T06:28:41;2.83;;;2.65;;
17997;SDS011;9124;48.144;17.098;2023-11-22T06:33:09;4.70;;;4.25;;
17997;SDS011;9124;48.144;17.098;2023-11-22T06:37:35;4.10;;;3.70;;
17997;SDS011;9124;48.144;17.098;2023-11-22T06:42:02;4.85;;;4.35;;
17997;SDS011;9124;48.144;17.098;2023-11-22T06:46:29;3.88;;;3.58;;
17997;SDS011;9124;48.144;17.098;2023-11-22T06:50:55;5.78;;;4.00;;
17997;SDS011;9124;48.144;17.098;2023-11-22T06:55:21;4.57;;;4.18;;
17997;SDS011;9124;48.144;17.098;2023-11-22T06:59:48;4.35;;;3.95;;
17997;SDS011;9124;48.144;17.098;2023-11-22T07:04:14;4.70;;;4.32;;
17997;SDS011;9124;48.144;17.098;2023-11-22T07:08:41;4.40;;;4.10;;
17997;SDS011;9124;48.144;17.098;2023-11-22T07:13:10;4.35;;;3.80;;
17997;SDS011;9124;48.144;17.098;2023-11-22T07:17:38;4.20;;;3.90;;
17997;SDS011;9124;48.144;17.098;2023-11-22T07:22:05;4.57;;;4.25;;
17997;SDS011;9124;48.144;17.098;2023-11-22T07:26:42;3.42;;;3.20;;
17997;SDS011;9124;48.144;17.098;2023-11-22T07:31:08;9.65;;;3.97;;
17997;SDS011;9124;48.144;17.098;2023-11-22T07:35:35;4.78;;;4.05;;
17997;SDS011;9124;48.144;17.098;2023-11-22T07:40:01;7.18;;;4.50;;
17997;SDS011;9124;48.144;17.098;2023-11-22T07:44:31;4.32;;;3.92;;
17997;SDS011;9124;48.144;17.098;2023-11-22T07:48:58;5.00;;;4.50;;
17997;SDS011;9124;48.144;17.098;2023-11-22T07:53:25;4.32;;;4.03;;
17997;SDS011;9124;48.144;17.098;2023-11-22T07:57:55;6.10;;;5.60;;
17997;SDS011;9124;48.144;17.098;2023-11-22T08:02:21;5.03;;;4.65;;
17997;SDS011;9124;48.144;17.098;2023-11-22T08:06:47;6.10;;;5.05;;
17997;SDS011;9124;48.144;17.098;2023-11-22T08:11:14;6.10;;;5.53;;
17997;SDS011;9124;48.144;17.098;2023-11-22T08:15:41;4.55;;;4.15;;
17997;SDS011;9124;48.144;17.098;2023-11-22T08:20:08;5.82;;;5.32;;
17997;SDS011;9124;48.144;17.098;2023-11-22T08:24:42;6.00;;;5.45;;
17997;SDS011;9124;48.144;17.098;2023-11-22T08:29:09;6.43;;;5.82;;
17997;SDS011;9124;48.144;17.098;2023-11-22T08:33:37;5.20;;;4.75;;
17997;SDS011;9124;48.144;17.098;2023-11-22T08:38:06;7.20;;;6.53;;
17997;SDS011;9124;48.144;17.098;2023-11-22T08:42:35;8.00;;;7.20;;
17997;SDS011;9124;48.144;17.098;2023-11-22T08:47:02;7.13;;;6.53;;
17997;SDS011;9124;48.144;17.098;2023-11-22T08:51:29;8.02;;;7.43;;
17997;SDS011;9124;48.144;17.098;2023-11-22T08:55:56;8.45;;;7.72;;
17997;SDS011;9124;48.144;17.098;2023-11-22T09:00:22;8.48;;;7.95;;
17997;SDS011;9124;48.144;17.098;2023-11-22T09:04:48;9.88;;;9.23;;
17997;SDS011;9124;48.144;17.098;2023-11-22T09:09:15;9.95;;;9.35;;
17997;SDS011;9124;48.144;17.098;2023-11-22T09:13:42;10.20;;;9.55;;
17997;SDS011;9124;48.144;17.098;2023-11-22T09:18:09;10.02;;;9.43;;
17997;SDS011;9124;48.144;17.098;2023-11-22T09:22:35;10.20;;;9.60;;
17997;SDS011;9124;48.144;17.098;2023-11-22T09:27:02;11.13;;;10.27;;
17997;SDS011;9124;48.144;17.098;2023-11-22T09:31:31;10.63;;;9.93;;
17997;SDS011;9124;48.144;17.098;2023-11-22T09:35:57;10.63;;;10.00;;
17997;SDS011;9124;48.144;17.098;2023-11-22T09:40:24;10.18;;;9.38;;
17997;SDS011;9124;48.144;17.098;2023-11-22T09:44:53;10.13;;;9.60;;
17997;SDS011;9124;48.144;17.098;2023-11-22T09:49:20;10.02;;;9.43;;
17997;SDS011;9124;48.144;17.098;2023-11-22T09:54:03;11.60;;;10.48;;
17997;SDS011;9124;48.144;17.098;2023-11-22T09:58:33;11.43;;;10.73;;
17997;SDS011;9124;48.144;17.098;2023-11-22T10:03:01;11.23;;;10.60;;
17997;SDS011;9124;48.144;17.098;2023-11-22T10:07:30;11.27;;;10.45;;
17997;SDS011;9124;48.144;17.098;2023-11-22T10:12:01;11.63;;;10.80;;
17997;SDS011;9124;48.144;17.098;2023-11-22T10:16:27;11.95;;;11.13;;
17997;SDS011;9124;48.144;17.098;2023-11-22T10:20:54;11.80;;;10.90;;
17997;SDS011;9124;48.144;17.098;2023-11-22T10:25:21;12.85;;;11.85;;
17997;SDS011;9124;48.144;17.098;2023-11-22T10:29:49;12.98;;;11.98;;
17997;SDS011;9124;48.144;17.098;2023-11-22T10:34:18;11.27;;;10.40;;
17997;SDS011;9124;48.144;17.098;2023-11-22T10:38:46;11.52;;;10.57;;
17997;SDS011;9124;48.144;17.098;2023-11-22T10:43:16;11.73;;;10.95;;
17997;SDS011;9124;48.144;17.098;2023-11-22T10:47:44;12.48;;;11.48;;
17997;SDS011;9124;48.144;17.098;2023-11-22T10:52:12;11.85;;;10.98;;
17997;SDS011;9124;48.144;17.098;2023-11-22T10:56:40;12.40;;;11.45;;
17997;SDS011;9124;48.144;17.098;2023-11-22T11:01:11;12.15;;;11.23;;
17997;SDS011;9124;48.144;17.098;2023-11-22T11:05:39;11.48;;;10.50;;
17997;SDS011;9124;48.144;17.098;2023-11-22T11:10:09;12.15;;;11.15;;
17997;SDS011;9124;48.144;17.098;2023-11-22T11:14:37;12.25;;;11.10;;
17997;SDS011;9124;48.144;17.098;2023-11-22T11:19:04;11.48;;;10.38;;
17997;SDS011;9124;48.144;17.098;2023-11-22T11:23:33;11.20;;;9.98;;
17997;SDS011;9124;48.144;17.098;2023-11-22T11:28:00;12.27;;;10.20;;
17997;SDS011;9124;48.144;17.098;2023-11-22T11:32:31;13.00;;;11.68;;
17997;SDS011;9124;48.144;17.098;2023-11-22T11:36:59;11.88;;;10.68;;
17997;SDS011;9124;48.144;17.098;2023-11-22T11:41:26;13.73;;;10.80;;
17997;SDS011;9124;48.144;17.098;2023-11-22T11:45:54;13.82;;;11.65;;
17997;SDS011;9124;48.144;17.098;2023-11-22T11:50:21;20.15;;;12.35;;
17997;SDS011;9124;48.144;17.098;2023-11-22T11:54:48;13.77;;;11.07;;
17997;SDS011;9124;48.144;17.098;2023-11-22T11:59:16;15.27;;;13.52;;
17997;SDS011;9124;48.144;17.098;2023-11-22T12:03:43;16.23;;;12.02;;
17997;SDS011;9124;48.144;17.098;2023-11-22T12:08:10;15.43;;;13.10;;
17997;SDS011;9124;48.144;17.098;2023-11-22T12:12:39;14.85;;;12.00;;
17997;SDS011;9124;48.144;17.098;2023-11-22T12:17:09;18.60;;;13.55;;
17997;SDS011;9124;48.144;17.098;2023-11-22T12:21:36;15.40;;;13.27;;
17997;SDS011;9124;48.144;17.098;2023-11-22T12:26:03;17.25;;;13.27;;
17997;SDS011;9124;48.144;17.098;2023-11-22T12:30:35;16.13;;;13.23;;
17997;SDS011;9124;48.144;17.098;2023-11-22T12:35:03;23.10;;;14.27;;
17997;SDS011;9124;48.144;17.098;2023-11-22T12:39:35;17.13;;;13.55;;
17997;SDS011;9124;48.144;17.098;2023-11-22T12:44:03;19.42;;;13.80;;
17997;SDS011;9124;48.144;17.098;2023-11-22T12:48:31;20.33;;;14.27;;
17997;SDS011;9124;48.144;17.098;2023-11-22T12:52:59;18.23;;;14.65;;
17997;SDS011;9124;48.144;17.098;2023-11-22T12:57:59;19.83;;;13.85;;
17997;SDS011;9124;48.144;17.098;2023-11-22T13:02:29;19.33;;;15.00;;
17997;SDS011;9124;48.144;17.098;2023-11-22T13:06:55;20.67;;;14.80;;
17997;SDS011;9124;48.144;17.098;2023-11-22T13:11:22;20.08;;;15.10;;
17997;SDS011;9124;48.144;17.098;2023-11-22T13:15:49;19.33;;;15.82;;
17997;SDS011;9124;48.144;17.098;2023-11-22T13:20:16;20.33;;;14.73;;
17997;SDS011;9124;48.144;17.098;2023-11-22T13:24:46;23.67;;;15.70;;
17997;SDS011;9124;48.144;17.098;2023-11-22T13:29:12;19.60;;;14.82;;
17997;SDS011;9124;48.144;17.098;2023-11-22T13:33:38;20.40;;;15.85;;
17997;SDS011;9124;48.144;17.098;2023-11-22T13:38:09;20.90;;;15.60;;
17997;SDS011;9124;48.144;17.098;2023-11-22T13:42:38;19.25;;;14.70;;
17997;SDS011;9124;48.144;17.098;2023-11-22T13:47:05;22.48;;;15.55;;
17997;SDS011;9124;48.144;17.098;2023-11-22T13:51:33;33.38;;;16.00;;
17997;SDS011;9124;48.144;17.098;2023-11-22T13:56:00;21.05;;;15.27;;
17997;SDS011;9124;48.144;17.098;2023-11-22T14:00:34;26.20;;;17.20;;
17997;SDS011;9124;48.144;17.098;2023-11-22T14:05:00;23.08;;;15.73;;
17997;SDS011;9124;48.144;17.098;2023-11-22T14:09:27;24.10;;;15.35;;
17997;SDS011;9124;48.144;17.098;2023-11-22T14:13:53;25.10;;;16.70;;
17997;SDS011;9124;48.144;17.098;2023-11-22T14:18:20;20.55;;;15.13;;
17997;SDS011;9124;48.144;17.098;2023-11-22T14:22:46;21.05;;;15.77;;
17997;SDS011;9124;48.144;17.098;2023-11-22T14:27:14;30.25;;;16.48;;
17997;SDS011;9124;48.144;17.098;2023-11-22T14:31:40;21.73;;;14.65;;
17997;SDS011;9124;48.144;17.098;2023-11-22T14:36:07;25.40;;;17.42;;
17997;SDS011;9124;48.144;17.098;2023-11-22T14:40:33;27.35;;;18.25;;
17997;SDS011;9124;48.144;17.098;2023-11-22T14:45:03;28.88;;;17.98;;
17997;SDS011;9124;48.144;17.098;2023-11-22T14:49:34;29.65;;;18.45;;
17997;SDS011;9124;48.144;17.098;2023-11-22T14:54:01;30.15;;;18.50;;
17997;SDS011;9124;48.144;17.098;2023-11-22T14:58:27;32.72;;;18.50;;
17997;SDS011;9124;48.144;17.098;2023-11-22T15:02:55;26.35;;;15.38;;
17997;SDS011;9124;48.144;17.098;2023-11-22T15:07:22;26.58;;;18.40;;
17997;SDS011;9124;48.144;17.098;2023-11-22T15:11:48;32.58;;;18.75;;
17997;SDS011;9124;48.144;17.098;2023-11-22T15:16:14;33.20;;;18.95;;
17997;SDS011;9124;48.144;17.098;2023-11-22T15:20:42;36.35;;;18.38;;
17997;SDS011;9124;48.144;17.098;2023-11-22T15:25:08;29.75;;;18.73;;
17997;SDS011;9124;48.144;17.098;2023-11-22T15:29:39;34.95;;;19.33;;
17997;SDS011;9124;48.144;17.098;2023-11-22T15:34:06;36.17;;;19.85;;
17997;SDS011;9124;48.144;17.098;2023-11-22T15:38:33;37.85;;;21.65;;
17997;SDS011;9124;48.144;17.098;2023-11-22T15:43:01;37.22;;;20.23;;
17997;SDS011;9124;48.144;17.098;2023-11-22T15:47:27;38.70;;;21.23;;
17997;SDS011;9124;48.144;17.098;2023-11-22T15:51:54;35.70;;;20.48;;
17997;SDS011;9124;48.144;17.098;2023-11-22T15:56:20;40.08;;;22.38;;
17997;SDS011;9124;48.144;17.098;2023-11-22T16:00:46;38.50;;;20.92;;
17997;SDS011;9124;48.144;17.098;2023-11-22T16:05:13;41.72;;;23.20;;
17997;SDS011;9124;48.144;17.098;2023-11-22T16:09:40;34.70;;;20.48;;
17997;SDS011;9124;48.144;17.098;2023-11-22T16:14:08;40.65;;;22.58;;
17997;SDS011;9124;48.144;17.098;2023-11-22T16:18:37;39.72;;;27.25;;
17997;SDS011;9124;48.144;17.098;2023-11-22T16:23:04;34.33;;;19.85;;
17997;SDS011;9124;48.144;17.098;2023-11-22T16:27:31;36.65;;;19.70;;
17997;SDS011;9124;48.144;17.098;2023-11-22T16:31:57;29.77;;;18.85;;
17997;SDS011;9124;48.144;17.098;2023-11-22T16:36:25;28.75;;;18.23;;
17997;SDS011;9124;48.144;17.098;2023-11-22T16:40:52;32.35;;;18.48;;
17997;SDS011;9124;48.144;17.098;2023-11-22T16:45:19;31.27;;;17.33;;
17997;SDS011;9124;48.144;17.098;2023-11-22T16:49:46;33.53;;;18.23;;
17997;SDS011;9124;48.144;17.098;2023-11-22T16:54:12;30.55;;;17.30;;
17997;SDS011;9124;48.144;17.098;2023-11-22T16:58:39;18.92;;;12.45;;
17997;SDS011;9124;48.144;17.098;2023-11-22T17:03:05;25.05;;;19.67;;
17997;SDS011;9124;48.144;17.098;2023-11-22T17:07:32;14.50;;;12.38;;
17997;SDS011;9124;48.144;17.098;2023-11-22T17:11:58;14.77;;;10.77;;
17997;SDS011;9124;48.144;17.098;2023-11-22T17:16:24;13.77;;;10.65;;
17997;SDS011;9124;48.144;17.098;2023-11-22T17:20:51;11.23;;;9.93;;
17997;SDS011;9124;48.144;17.098;2023-11-22T17:25:19;16.08;;;12.23;;
17997;SDS011;9124;48.144;17.098;2023-11-22T17:29:47;17.25;;;15.52;;
17997;SDS011;9124;48.144;17.098;2023-11-22T17:34:16;13.57;;;11.77;;
17997;SDS011;9124;48.144;17.098;2023-11-22T17:38:44;19.10;;;13.27;;
17997;SDS011;9124;48.144;17.098;2023-11-22T17:43:11;17.15;;;12.25;;
17997;SDS011;9124;48.144;17.098;2023-11-22T17:47:37;22.73;;;13.35;;
17997;SDS011;9124;48.144;17.098;2023-11-22T17:52:04;17.55;;;12.20;;
17997;SDS011;9124;48.144;17.098;2023-11-22T17:56:30;17.48;;;12.73;;
17997;SDS011;9124;48.144;17.098;2023-11-22T18:00:57;19.77;;;12.60;;
17997;SDS011;9124;48.144;17.098;2023-11-22T18:05:23;16.10;;;12.80;;
17997;SDS011;9124;48.144;17.098;2023-11-22T18:09:50;17.55;;;12.63;;
17997;SDS011;9124;48.144;17.098;2023-11-22T18:14:17;16.00;;;12.10;;
17997;SDS011;9124;48.144;17.098;2023-11-22T18:18:44;18.77;;;12.73;;
17997;SDS011;9124;48.144;17.098;2023-11-22T18:23:10;21.33;;;14.20;;
17997;SDS011;9124;48.144;17.098;2023-11-22T18:27:37;24.20;;;14.15;;
17997;SDS011;9124;48.144;17.098;2023-11-22T18:32:03;17.23;;;12.35;;
17997;SDS011;9124;48.144;17.098;2023-11-22T18:36:30;20.48;;;13.50;;
17997;SDS011;9124;48.144;17.098;2023-11-22T18:40:57;20.30;;;13.50;;
17997;SDS011;9124;48.144;17.098;2023-11-22T18:45:29;19.70;;;14.75;;
17997;SDS011;9124;48.144;17.098;2023-11-22T18:49:55;22.25;;;13.68;;
17997;SDS011;9124;48.144;17.098;2023-11-22T18:54:22;22.15;;;15.15;;
17997;SDS011;9124;48.144;17.098;2023-11-22T18:58:48;19.42;;;14.07;;
17997;SDS011;9124;48.144;17.098;2023-11-22T19:03:15;26.73;;;14.05;;
17997;SDS011;9124;48.144;17.098;2023-11-22T19:07:41;20.55;;;14.57;;
17997;SDS011;9124;48.144;17.098;2023-11-22T19:12:08;26.20;;;15.95;;
17997;SDS011;9124;48.144;17.098;2023-11-22T19:16:36;22.48;;;15.27;;
17997;SDS011;9124;48.144;17.098;2023-11-22T19:21:03;23.00;;;15.73;;
17997;SDS011;9124;48.144;17.098;2023-11-22T19:25:30;24.10;;;15.00;;
17997;SDS011;9124;48.144;17.098;2023-11-22T19:29:58;22.52;;;16.08;;
17997;SDS011;9124;48.144;17.098;2023-11-22T19:34:29;21.15;;;14.82;;
17997;SDS011;9124;48.144;17.098;2023-11-22T19:38:56;21.42;;;13.38;;
17997;SDS011;9124;48.144;17.098;2023-11-22T19:43:23;31.90;;;16.98;;
17997;SDS011;9124;48.144;17.098;2023-11-22T19:47:49;24.92;;;14.75;;
17997;SDS011;9124;48.144;17.098;2023-11-22T19:52:16;21.23;;;14.55;;
17997;SDS011;9124;48.144;17.098;2023-11-22T19:56:42;28.40;;;15.93;;
17997;SDS011;9124;48.144;17.098;2023-11-22T20:01:11;25.02;;;16.05;;
17997;SDS011;9124;48.144;17.098;2023-11-22T20:05:38;24.60;;;15.27;;
17997;SDS011;9124;48.144;17.098;2023-11-22T20:10:05;24.35;;;14.57;;
17997;SDS011;9124;48.144;17.098;2023-11-22T20:14:32;26.00;;;14.27;;
17997;SDS011;9124;48.144;17.098;2023-11-22T20:18:58;29.70;;;16.98;;
17997;SDS011;9124;48.144;17.098;2023-11-22T20:23:25;25.98;;;17.13;;
17997;SDS011;9124;48.144;17.098;2023-11-22T20:27:51;27.00;;;17.25;;
17997;SDS011;9124;48.144;17.098;2023-11-22T20:32:17;27.00;;;15.88;;
17997;SDS011;9124;48.144;17.098;2023-11-22T20:36:44;23.60;;;16.30;;
17997;SDS011;9124;48.144;17.098;2023-11-22T20:41:11;27.98;;;16.27;;
17997;SDS011;9124;48.144;17.098;2023-11-22T20:45:37;28.20;;;17.40;;
17997;SDS011;9124;48.144;17.098;2023-11-22T20:50:03;27.50;;;16.25;;
17997;SDS011;9124;48.144;17.098;2023-11-22T20:54:32;27.60;;;16.95;;
17997;SDS011;9124;48.144;17.098;2023-11-22T20:58:59;28.15;;;16.70;;
17997;SDS011;9124;48.144;17.098;2023-11-22T21:03:26;31.13;;;18.52;;
17997;SDS011;9124;48.144;17.098;2023-11-22T21:07:53;30.98;;;17.35;;
17997;SDS011;9124;48.144;17.098;2023-11-22T21:12:21;34.35;;;17.17;;
17997;SDS011;9124;48.144;17.098;2023-11-22T21:16:47;27.65;;;15.55;;
17997;SDS011;9124;48.144;17.098;2023-11-22T21:21:14;30.75;;;17.45;;
17997;SDS011;9124;48.144;17.098;2023-11-22T21:25:40;27.30;;;16.05;;
17997;SDS011;9124;48.144;17.098;2023-11-22T21:30:08;30.13;;;17.13;;
17997;SDS011;9124;48.144;17.098;2023-11-22T21:34:37;28.90;;;16.90;;
17997;SDS011;9124;48.144;17.098;2023-11-22T21:39:04;31.65;;;17.35;;
17997;SDS011;9124;48.144;17.098;2023-11-22T21:43:37;32.90;;;17.90;;
17997;SDS011;9124;48.144;17.098;2023-11-22T21:48:05;36.35;;;18.98;;
17997;SDS011;9124;48.144;17.098;2023-11-22T21:52:31;28.70;;;17.10;;
17997;SDS011;9124;48.144;17.098;2023-11-22T21:56:58;39.13;;;18.88;;
17997;SDS011;9124;48.144;17.098;2023-11-22T22:01:24;30.38;;;18.30;;
17997;SDS011;9124;48.144;17.098;2023-11-22T22:05:51;35.58;;;20.48;;
17997;SDS011;9124;48.144;17.098;2023-11-22T22:10:17;36.50;;;19.20;;
17997;SDS011;9124;48.144;17.098;2023-11-22T22:14:45;30.73;;;18.92;;
17997;SDS011;9124;48.144;17.098;2023-11-22T22:19:12;29.17;;;17.35;;
17997;SDS011;9124;48.144;17.098;2023-11-22T22:23:39;34.25;;;17.70;;
17997;SDS011;9124;48.144;17.098;2023-11-22T22:28:06;33.60;;;18.02;;
17997;SDS011;9124;48.144;17.098;2023-11-22T22:32:35;29.13;;;17.77;;
17997;SDS011;9124;48.144;17.098;2023-11-22T22:37:01;31.67;;;17.42;;
17997;SDS011;9124;48.144;17.098;2023-11-22T22:41:29;30.08;;;17.52;;
17997;SDS011;9124;48.144;17.098;2023-11-22T22:45:55;31.50;;;17.55;;
17997;SDS011;9124;48.144;17.098;2023-11-22T22:50:21;30.70;;;17.90;;
17997;SDS011;9124;48.144;17.098;2023-11-22T22:54:48;30.50;;;18.30;;
17997;SDS011;9124;48.144;17.098;2023-11-22T22:59:14;28.40;;;16.95;;
17997;SDS011;9124;48.144;17.098;2023-11-22T23:03:41;27.52;;;17.45;;
17997;SDS011;9124;48.144;17.098;2023-11-22T23:08:08;25.23;;;17.35;;
17997;SDS011;9124;48.144;17.098;2023-11-22T23:12:35;30.30;;;16.55;;
17997;SDS011;9124;48.144;17.098;2023-11-22T23:17:02;29.83;;;16.25;;
17997;SDS011;9124;48.144;17.098;2023-11-22T23:21:30;29.10;;;16.92;;
17997;SDS011;9124;48.144;17.098;2023-11-22T23:25:57;29.08;;;16.20;;
17997;SDS011;9124;48.144;17.098;2023-11-22T23:30:23;26.90;;;16.33;;
17997;SDS011;9124;48.144;17.098;2023-11-22T23:34:49;29.17;;;17.80;;
17997;SDS011;9124;48.144;17.098;2023-11-22T23:39:16;29.27;;;17.50;;
17997;SDS011;9124;48.144;17.098;2023-11-22T23:43:42;28.35;;;17.80;;
17997;SDS011;9124;48.144;17.098;2023-11-22T23:48:08;30.88;;;17.95;;
17997;SDS011;9124;48.144;17.098;2023-11-22T23:52:39;30.95;;;18.67;;
17997;SDS011;9124;48.144;17.098;2023-11-22T23:57:06;27.65;;;16.75;;
